Sunray, Texas
Current Conditions -  °F | °C
As of 9:35 PM on Wednesday 22 Oct 2014 (Local Time) from KDUX Reporting Station
Haze Haze  
Wind Chill: 15°   Ceiling: 500
Heat Index: 15°   Visibility: 5mi
Dew Point: 14°   Wind: 12mph
Humidity: 94%   Direction: 150°SSE
Pressure: 30.1"   Gusts: NA
Location:  36.02°N, 101.82°W
Report Text: KDUX 230235Z AUTO 15010KT 5SM BR BKN005 15/14 A3010 RMK AO2 T01530143
Loading
Personal Weather Stations






























Interactive Weather Map
Tropical Storm Tracking
New forecast layout! Learn more

10-Day Weather Forecast

Advertisements
Track Severe Weather on mobile